createdAt,value
2023-04-08T00:02:28.163Z,4.60
2023-04-08T00:05:31.373Z,4.60
2023-04-08T00:08:34.659Z,4.50
2023-04-08T00:11:38.377Z,4.50
2023-04-08T00:14:41.972Z,4.40
2023-04-08T00:17:45.914Z,4.40
2023-04-08T00:20:49.581Z,4.40
2023-04-08T00:23:52.578Z,4.40
2023-04-08T00:26:56.816Z,4.40
2023-04-08T00:30:00.621Z,4.40
2023-04-08T00:33:03.813Z,4.40
2023-04-08T00:36:07.086Z,4.40
2023-04-08T00:39:10.188Z,4.50
2023-04-08T00:42:13.373Z,4.40
2023-04-08T00:45:16.877Z,4.40
2023-04-08T00:48:19.963Z,4.30
2023-04-08T00:51:22.843Z,4.30
2023-04-08T00:54:25.732Z,4.40
2023-04-08T00:57:29.234Z,4.40
2023-04-08T01:00:34.375Z,4.30
2023-04-08T01:04:00.905Z,4.30
2023-04-08T01:07:22.747Z,4.30
2023-04-08T01:10:32.080Z,4.30
2023-04-08T01:13:39.370Z,4.30
2023-04-08T01:16:45.637Z,4.30
2023-04-08T01:19:49.961Z,4.20
2023-04-08T01:23:21.411Z,4.20
2023-04-08T01:26:26.955Z,4.20
2023-04-08T01:29:31.790Z,4.10
2023-04-08T01:32:35.832Z,4.10
2023-04-08T01:35:39.558Z,4.10
2023-04-08T01:38:42.905Z,4.10
2023-04-08T01:41:46.618Z,4.20
2023-04-08T01:44:51.338Z,4.20
2023-04-08T01:47:54.795Z,4.10
2023-04-08T01:50:59.371Z,4.10
2023-04-08T01:54:02.376Z,4.10
2023-04-08T01:57:09.236Z,4.10
2023-04-08T02:00:14.484Z,4.10
2023-04-08T02:03:23.471Z,4.10
2023-04-08T02:06:29.563Z,4.10
2023-04-08T02:09:32.761Z,4.10
2023-04-08T02:12:36.053Z,4.10
2023-04-08T02:15:43.246Z,4.10
2023-04-08T02:18:59.745Z,4.10
2023-04-08T02:22:17.688Z,4.10
2023-04-08T02:25:24.771Z,4.00
2023-04-08T02:28:29.502Z,4.00
2023-04-08T02:31:33.938Z,4.00
2023-04-08T02:34:39.776Z,4.00
2023-04-08T02:37:42.861Z,4.00
2023-04-08T02:40:51.741Z,3.90
2023-04-08T02:43:55.807Z,3.90
2023-04-08T02:46:58.795Z,3.90
2023-04-08T02:50:01.640Z,3.90
2023-04-08T02:53:05.799Z,4.00
2023-04-08T02:56:12.206Z,4.00
2023-04-08T02:59:15.863Z,4.00
2023-04-08T03:02:18.743Z,3.90
2023-04-08T03:05:22.047Z,4.00
2023-04-08T03:08:25.240Z,4.00
2023-04-08T03:11:28.446Z,4.00
2023-04-08T03:14:31.830Z,4.00
2023-04-08T03:17:34.990Z,4.00
2023-04-08T03:20:38.618Z,4.00
2023-04-08T03:23:41.714Z,3.90
2023-04-08T03:26:45.520Z,3.90
2023-04-08T03:29:48.815Z,3.90
2023-04-08T03:32:52.059Z,3.90
2023-04-08T03:35:56.257Z,3.90
2023-04-08T03:38:59.621Z,3.90
2023-04-08T03:42:03.559Z,3.90
2023-04-08T03:45:07.135Z,3.90
2023-04-08T03:48:10.428Z,3.90
2023-04-08T03:51:13.676Z,3.90
2023-04-08T03:54:17.019Z,3.90
2023-04-08T03:57:20.213Z,3.90
2023-04-08T04:00:23.613Z,3.90
2023-04-08T04:03:27.716Z,3.90
2023-04-08T04:06:31.539Z,3.80
2023-04-08T04:09:34.838Z,3.80
2023-04-08T04:12:37.918Z,3.80
2023-04-08T04:15:41.860Z,3.80
2023-04-08T04:18:45.166Z,3.80
2023-04-08T04:21:48.108Z,3.80
2023-04-08T04:24:51.291Z,3.80
2023-04-08T04:27:54.636Z,3.80
2023-04-08T04:30:58.541Z,3.70
2023-04-08T04:34:01.897Z,3.70
2023-04-08T04:37:04.994Z,3.80
2023-04-08T04:40:08.386Z,3.80
2023-04-08T04:43:11.993Z,3.80
2023-04-08T04:46:15.114Z,3.90
2023-04-08T04:49:18.275Z,4.00
2023-04-08T04:52:21.428Z,4.00
2023-04-08T04:55:24.258Z,4.00
2023-04-08T04:58:27.443Z,4.10
2023-04-08T05:01:30.783Z,4.10
2023-04-08T05:04:33.873Z,4.20
2023-04-08T05:07:37.436Z,4.20
2023-04-08T05:10:42.883Z,4.20
2023-04-08T05:13:46.697Z,4.20
2023-04-08T05:16:49.993Z,4.20
2023-04-08T05:19:54.004Z,4.20
2023-04-08T05:22:57.198Z,4.30
2023-04-08T05:26:00.386Z,4.30
2023-04-08T05:29:03.690Z,4.30
2023-04-08T05:32:06.679Z,4.30
2023-04-08T05:35:10.499Z,4.30
2023-04-08T05:38:13.877Z,4.30
2023-04-08T05:41:17.282Z,4.40
2023-04-08T05:44:20.175Z,4.40
2023-04-08T05:47:23.210Z,4.40
2023-04-08T05:50:26.274Z,4.50
2023-04-08T05:53:29.552Z,4.50
2023-04-08T05:56:32.625Z,4.60
2023-04-08T05:59:35.612Z,4.70
2023-04-08T06:02:39.090Z,4.80
2023-04-08T06:05:42.509Z,4.90
2023-04-08T06:08:46.003Z,5.00
2023-04-08T06:11:51.041Z,5.10
2023-04-08T06:14:56.996Z,5.20
2023-04-08T06:17:59.931Z,5.30
2023-04-08T06:21:03.896Z,5.50
2023-04-08T06:24:07.397Z,5.50
2023-04-08T06:27:10.178Z,5.60
2023-04-08T06:30:13.676Z,5.70
2023-04-08T06:33:17.079Z,5.80
2023-04-08T06:36:20.372Z,5.90
2023-04-08T06:39:23.975Z,6.00
2023-04-08T06:42:27.692Z,6.10
2023-04-08T06:45:31.076Z,6.10
2023-04-08T06:48:34.277Z,6.30
2023-04-08T06:51:37.371Z,6.30
2023-04-08T06:54:41.473Z,6.30
2023-04-08T06:57:44.373Z,6.50
2023-04-08T07:00:48.805Z,6.50
2023-04-08T07:03:52.124Z,6.70
2023-04-08T07:06:55.170Z,6.80
2023-04-08T07:09:58.262Z,6.90
2023-04-08T07:13:01.557Z,6.90
2023-04-08T07:16:04.852Z,7.10
2023-04-08T07:19:07.852Z,7.20
2023-04-08T07:22:11.239Z,7.20
2023-04-08T07:25:14.639Z,7.10
2023-04-08T07:28:18.038Z,7.30
2023-04-08T07:31:21.432Z,7.60
2023-04-08T07:34:24.636Z,7.60
2023-04-08T07:37:28.647Z,7.80
2023-04-08T07:40:33.676Z,7.80
2023-04-08T07:43:37.718Z,7.80
2023-04-08T07:46:41.024Z,7.70
2023-04-08T07:49:46.433Z,7.80
2023-04-08T07:52:49.420Z,8.10
2023-04-08T07:55:52.617Z,8.40
2023-04-08T07:58:56.634Z,8.70
2023-04-08T08:01:59.864Z,8.70
2023-04-08T08:05:03.962Z,8.80
2023-04-08T08:08:07.950Z,9.00
2023-04-08T08:11:11.443Z,9.00
2023-04-08T08:14:16.063Z,9.20
2023-04-08T08:17:18.856Z,9.30
2023-04-08T08:20:22.463Z,9.50
2023-04-08T08:23:25.968Z,9.50
2023-04-08T08:26:29.169Z,9.40
2023-04-08T08:29:32.353Z,9.30
2023-04-08T08:32:36.169Z,9.20
2023-04-08T08:35:39.196Z,8.90
2023-04-08T08:38:42.334Z,8.90
2023-04-08T08:41:46.248Z,8.70
2023-04-08T08:44:49.851Z,8.80
2023-04-08T08:47:53.029Z,8.70
2023-04-08T08:50:56.233Z,8.70
2023-04-08T08:54:04.765Z,8.70
2023-04-08T08:57:20.645Z,8.70
2023-04-08T09:00:38.893Z,8.80
2023-04-08T09:03:42.198Z,9.00
2023-04-08T09:06:51.319Z,9.10
2023-04-08T09:09:56.357Z,9.20
2023-04-08T09:13:00.680Z,9.20
2023-04-08T09:16:15.286Z,9.00
2023-04-08T09:19:18.435Z,9.00
2023-04-08T09:22:21.639Z,8.90
2023-04-08T09:25:29.346Z,8.70
2023-04-08T09:28:32.826Z,8.70
2023-04-08T09:31:41.795Z,8.80
2023-04-08T09:34:44.952Z,9.10
2023-04-08T09:37:48.553Z,9.20
2023-04-08T09:40:52.562Z,9.20
2023-04-08T09:43:57.194Z,9.10
2023-04-08T09:47:13.289Z,9.10
2023-04-08T09:50:20.267Z,9.10
2023-04-08T09:53:36.980Z,9.00
2023-04-08T09:56:49.992Z,9.20
2023-04-08T10:00:08.662Z,9.20
2023-04-08T10:03:21.729Z,9.30
2023-04-08T10:06:30.102Z,9.00
2023-04-08T10:09:33.814Z,8.90
2023-04-08T10:12:36.997Z,9.10
2023-04-08T10:15:43.468Z,9.30
2023-04-08T10:18:46.763Z,9.40
2023-04-08T10:21:50.780Z,9.50
2023-04-08T10:25:21.311Z,9.70
2023-04-08T10:28:24.813Z,9.90
2023-04-08T10:31:27.902Z,10.00
2023-04-08T10:34:30.978Z,10.00
2023-04-08T10:37:34.400Z,10.00
2023-04-08T10:40:43.007Z,10.00
2023-04-08T10:43:48.016Z,10.00
2023-04-08T10:46:52.367Z,9.90
2023-04-08T10:49:55.762Z,9.90
2023-04-08T10:52:59.291Z,9.80
2023-04-08T10:56:18.653Z,9.90
2023-04-08T10:59:35.243Z,9.60
2023-04-08T11:02:41.688Z,9.40
2023-04-08T11:05:44.907Z,9.60
2023-04-08T11:08:48.111Z,9.60
2023-04-08T11:11:52.832Z,9.40
2023-04-08T11:14:56.631Z,9.30
2023-04-08T11:18:01.092Z,9.50
2023-04-08T11:21:09.074Z,9.70
2023-04-08T11:24:13.631Z,9.90
2023-04-08T11:27:17.161Z,10.00
2023-04-08T11:30:24.401Z,9.90
2023-04-08T11:33:27.783Z,9.90
2023-04-08T11:36:30.976Z,9.90
2023-04-08T11:39:34.170Z,10.00
2023-04-08T11:42:37.672Z,10.00
2023-04-08T11:45:42.300Z,10.10
2023-04-08T11:48:58.801Z,10.10
2023-04-08T11:52:02.623Z,10.00
2023-04-08T11:55:06.009Z,10.20
2023-04-08T11:58:09.302Z,10.20
2023-04-08T12:01:12.396Z,10.10
2023-04-08T12:04:18.418Z,10.00
2023-04-08T12:07:21.856Z,9.60
2023-04-08T12:10:28.126Z,9.40
2023-04-08T12:13:31.828Z,9.40
2023-04-08T12:16:34.942Z,9.40
2023-04-08T12:19:38.755Z,9.60
2023-04-08T12:22:41.816Z,9.60
2023-04-08T12:25:45.110Z,9.80
2023-04-08T12:28:48.199Z,9.90
2023-04-08T12:31:51.939Z,9.90
2023-04-08T12:34:56.350Z,9.80
2023-04-08T12:37:59.422Z,9.80
2023-04-08T12:41:02.927Z,9.70
2023-04-08T12:44:05.927Z,9.60
2023-04-08T12:47:09.308Z,9.50
2023-04-08T12:50:12.418Z,9.60
2023-04-08T12:53:16.424Z,9.70
2023-04-08T12:56:19.306Z,9.60
2023-04-08T12:59:22.599Z,9.60
2023-04-08T13:02:30.626Z,9.50
2023-04-08T13:05:43.367Z,9.40
2023-04-08T13:08:47.660Z,9.20
2023-04-08T13:11:51.148Z,8.80
2023-04-08T13:14:54.336Z,8.40
2023-04-08T13:17:57.706Z,8.00
2023-04-08T13:21:01.394Z,7.90
2023-04-08T13:24:04.844Z,7.90
2023-04-08T13:27:07.626Z,7.90
2023-04-08T13:30:11.938Z,7.70
2023-04-08T13:33:16.577Z,7.70
2023-04-08T13:36:19.868Z,7.90
2023-04-08T13:39:23.267Z,8.00
2023-04-08T13:42:26.761Z,8.30
2023-04-08T13:45:29.547Z,8.30
2023-04-08T13:48:32.341Z,8.40
2023-04-08T13:51:35.723Z,8.60
2023-04-08T13:54:38.915Z,8.40
2023-04-08T13:57:42.411Z,8.30
2023-04-08T14:00:45.721Z,8.10
2023-04-08T14:03:50.234Z,7.80
2023-04-08T14:06:53.534Z,7.50
2023-04-08T14:09:56.627Z,7.20
2023-04-08T14:13:00.430Z,7.10
2023-04-08T14:16:03.638Z,7.20
2023-04-08T14:19:06.612Z,7.40
2023-04-08T14:22:09.808Z,7.60
2023-04-08T14:25:13.317Z,7.60
2023-04-08T14:28:16.608Z,7.70
2023-04-08T14:31:20.519Z,8.00
2023-04-08T14:34:24.016Z,8.00
2023-04-08T14:37:27.205Z,8.00
2023-04-08T14:40:30.607Z,8.00
2023-04-08T14:43:34.110Z,8.10
2023-04-08T14:46:37.140Z,8.10
2023-04-08T14:49:40.388Z,8.20
2023-04-08T14:52:45.517Z,8.00
2023-04-08T14:55:48.411Z,8.00
2023-04-08T14:58:51.726Z,8.00
2023-04-08T15:01:55.265Z,8.10
2023-04-08T15:04:58.506Z,8.20
2023-04-08T15:08:01.802Z,8.30
2023-04-08T15:11:04.896Z,8.40
2023-04-08T15:14:08.095Z,8.40
2023-04-08T15:17:11.113Z,8.40
2023-04-08T15:20:14.576Z,8.30
2023-04-08T15:23:17.875Z,8.30
2023-04-08T15:26:21.884Z,8.30
2023-04-08T15:29:26.318Z,8.30
2023-04-08T15:32:30.243Z,8.20
2023-04-08T15:35:34.357Z,8.10
2023-04-08T15:38:37.629Z,8.10
2023-04-08T15:41:41.340Z,8.00
2023-04-08T15:44:45.030Z,7.90
2023-04-08T15:47:48.051Z,7.70
2023-04-08T15:50:51.157Z,7.70
2023-04-08T15:53:54.615Z,7.70
2023-04-08T15:56:58.009Z,7.60
2023-04-08T16:00:01.420Z,7.50
2023-04-08T16:03:08.682Z,7.40
2023-04-08T16:06:15.274Z,7.40
2023-04-08T16:09:22.978Z,7.30
2023-04-08T16:12:26.168Z,7.20
2023-04-08T16:15:29.308Z,7.20
2023-04-08T16:18:33.051Z,7.10
2023-04-08T16:21:36.354Z,7.10
2023-04-08T16:24:39.756Z,7.00
2023-04-08T16:27:43.054Z,6.80
2023-04-08T16:30:48.063Z,6.70
2023-04-08T16:33:51.706Z,6.60
2023-04-08T16:36:55.192Z,6.50
2023-04-08T16:39:58.216Z,6.40
2023-04-08T16:43:02.408Z,6.30
2023-04-08T16:46:13.311Z,6.30
2023-04-08T16:49:18.134Z,6.30
2023-04-08T16:52:22.021Z,6.30
2023-04-08T16:55:24.896Z,6.20
2023-04-08T16:58:27.784Z,6.20
2023-04-08T17:01:30.818Z,6.20
2023-04-08T17:04:33.968Z,6.20
2023-04-08T17:07:37.064Z,6.20
2023-04-08T17:10:40.352Z,6.10
2023-04-08T17:13:44.369Z,6.00
2023-04-08T17:16:47.603Z,6.00
2023-04-08T17:19:51.369Z,6.00
2023-04-08T17:22:54.457Z,5.90
2023-04-08T17:25:57.655Z,5.80
2023-04-08T17:29:01.049Z,5.70
2023-04-08T17:32:04.740Z,5.60
2023-04-08T17:35:08.354Z,5.60
2023-04-08T17:38:11.450Z,5.60
2023-04-08T17:41:21.572Z,5.60
2023-04-08T17:44:33.506Z,5.50
2023-04-08T17:47:36.856Z,5.50
2023-04-08T17:50:40.102Z,5.50
2023-04-08T17:53:43.395Z,5.50
2023-04-08T17:56:48.338Z,5.50
2023-04-08T17:59:53.362Z,5.50
2023-04-08T18:02:56.944Z,5.50
2023-04-08T18:05:59.847Z,5.40
2023-04-08T18:09:06.625Z,5.40
2023-04-08T18:12:09.510Z,5.40
2023-04-08T18:15:12.597Z,5.40
2023-04-08T18:18:19.786Z,5.30
2023-04-08T18:21:22.879Z,5.30
2023-04-08T18:24:26.274Z,5.30
2023-04-08T18:27:29.377Z,5.30
2023-04-08T18:30:32.683Z,5.30
2023-04-08T18:33:36.880Z,5.30
2023-04-08T18:36:39.767Z,5.30
2023-04-08T18:39:43.067Z,5.40
2023-04-08T18:42:46.766Z,5.40
2023-04-08T18:45:49.984Z,5.40
2023-04-08T18:48:53.150Z,5.30
2023-04-08T18:52:02.374Z,5.30
2023-04-08T18:55:06.605Z,5.40
2023-04-08T18:58:09.903Z,5.30
2023-04-08T19:01:16.628Z,5.40
2023-04-08T19:04:19.892Z,5.40
2023-04-08T19:07:23.682Z,5.40
2023-04-08T19:10:29.944Z,5.40
2023-04-08T19:13:33.658Z,5.30
2023-04-08T19:16:36.529Z,5.30
2023-04-08T19:19:39.723Z,5.30
2023-04-08T19:22:43.219Z,5.30
2023-04-08T19:25:47.543Z,5.30
2023-04-08T19:28:50.630Z,5.30
2023-04-08T19:31:53.751Z,5.30
2023-04-08T19:34:57.321Z,5.30
2023-04-08T19:38:00.327Z,5.20
2023-04-08T19:41:22.246Z,5.20
2023-04-08T19:44:25.336Z,5.20
2023-04-08T19:47:28.961Z,5.20
2023-04-08T19:50:32.446Z,5.20
2023-04-08T19:53:35.529Z,5.20
2023-04-08T19:56:38.621Z,5.20
2023-04-08T19:59:41.809Z,5.20
2023-04-08T20:02:45.160Z,5.20
2023-04-08T20:05:48.294Z,5.20
2023-04-08T20:08:53.712Z,5.20
2023-04-08T20:12:03.905Z,5.20
2023-04-08T20:15:23.002Z,5.20
2023-04-08T20:18:27.698Z,5.20
2023-04-08T20:21:30.691Z,5.20
2023-04-08T20:24:33.774Z,5.10
2023-04-08T20:27:37.798Z,5.20
2023-04-08T20:30:41.296Z,5.10
2023-04-08T20:33:45.657Z,5.20
2023-04-08T20:36:49.014Z,5.10
2023-04-08T20:39:52.715Z,5.10
2023-04-08T20:42:55.805Z,5.10
2023-04-08T20:45:59.003Z,5.10
2023-04-08T20:49:03.885Z,5.00
2023-04-08T20:52:07.439Z,5.00
2023-04-08T20:55:10.531Z,5.00
2023-04-08T20:58:13.306Z,5.00
2023-04-08T21:01:17.371Z,5.00
2023-04-08T21:04:21.331Z,5.00
2023-04-08T21:07:27.214Z,5.00
2023-04-08T21:10:30.810Z,5.00
2023-04-08T21:13:33.991Z,5.00
2023-04-08T21:16:37.202Z,5.00
2023-04-08T21:19:42.206Z,4.90
2023-04-08T21:22:45.301Z,5.00
2023-04-08T21:25:48.503Z,5.00
2023-04-08T21:28:52.186Z,5.00
2023-04-08T21:31:55.967Z,5.00
2023-04-08T21:34:59.096Z,5.00
2023-04-08T21:38:02.279Z,5.00
2023-04-08T21:41:05.275Z,5.00
2023-04-08T21:44:09.459Z,5.00
2023-04-08T21:47:12.609Z,5.00
2023-04-08T21:50:15.995Z,5.00
2023-04-08T21:53:19.073Z,5.00
2023-04-08T21:56:22.487Z,4.90
2023-04-08T21:59:25.867Z,4.90
2023-04-08T22:02:28.676Z,4.90
2023-04-08T22:05:35.427Z,4.90
2023-04-08T22:08:38.926Z,4.90
2023-04-08T22:11:42.135Z,4.90
2023-04-08T22:14:45.112Z,4.90
2023-04-08T22:17:48.230Z,4.80
2023-04-08T22:20:51.801Z,4.90
2023-04-08T22:23:54.697Z,4.80
2023-04-08T22:26:58.812Z,4.80
2023-04-08T22:30:01.698Z,4.90
2023-04-08T22:33:05.114Z,4.80
2023-04-08T22:36:08.119Z,4.80
2023-04-08T22:39:11.889Z,4.80
2023-04-08T22:42:14.974Z,4.80
2023-04-08T22:45:18.276Z,4.80
2023-04-08T22:48:21.467Z,4.80
2023-04-08T22:51:24.662Z,4.80
2023-04-08T22:54:27.535Z,4.70
2023-04-08T22:57:30.956Z,4.70
2023-04-08T23:00:34.751Z,4.80
2023-04-08T23:03:37.981Z,4.80
2023-04-08T23:06:41.241Z,4.80
2023-04-08T23:09:44.120Z,4.70
2023-04-08T23:12:47.209Z,4.80
2023-04-08T23:15:50.404Z,4.70
2023-04-08T23:18:53.545Z,4.70
2023-04-08T23:21:56.786Z,4.70
2023-04-08T23:24:59.769Z,4.70
2023-04-08T23:28:02.766Z,4.70
2023-04-08T23:31:06.109Z,4.70
2023-04-08T23:34:09.662Z,4.70
2023-04-08T23:37:12.450Z,4.70
2023-04-08T23:40:15.644Z,4.70
2023-04-08T23:43:18.628Z,4.70
2023-04-08T23:46:22.066Z,4.70
2023-04-08T23:49:25.122Z,4.70
2023-04-08T23:52:28.421Z,4.70
2023-04-08T23:55:31.197Z,4.70
2023-04-08T23:58:34.709Z,4.60
